sensor_id;sensor_type;location;lat;lon;timestamp;P1;durP1;ratioP1;P2;durP2;ratioP2
51266;SDS011;37338;47.426;19.204;2023-03-23T00:01:12;32.53;;;15.30;;
51266;SDS011;37338;47.426;19.204;2023-03-23T00:03:38;27.27;;;14.17;;
51266;SDS011;37338;47.426;19.204;2023-03-23T00:06:04;29.57;;;14.13;;
51266;SDS011;37338;47.426;19.204;2023-03-23T00:08:34;30.23;;;14.40;;
51266;SDS011;37338;47.426;19.204;2023-03-23T00:11:17;29.33;;;14.40;;
51266;SDS011;37338;47.426;19.204;2023-03-23T00:13:45;27.63;;;14.30;;
51266;SDS011;37338;47.426;19.204;2023-03-23T00:16:11;27.60;;;13.53;;
51266;SDS011;37338;47.426;19.204;2023-03-23T00:18:44;31.17;;;13.83;;
51266;SDS011;37338;47.426;19.204;2023-03-23T00:21:14;31.47;;;14.77;;
51266;SDS011;37338;47.426;19.204;2023-03-23T00:23:40;25.93;;;12.93;;
51266;SDS011;37338;47.426;19.204;2023-03-23T00:26:09;30.27;;;14.17;;
51266;SDS011;37338;47.426;19.204;2023-03-23T00:28:35;35.70;;;14.40;;
51266;SDS011;37338;47.426;19.204;2023-03-23T00:31:02;24.53;;;13.57;;
51266;SDS011;37338;47.426;19.204;2023-03-23T00:33:31;23.77;;;12.80;;
51266;SDS011;37338;47.426;19.204;2023-03-23T00:36:03;26.50;;;13.70;;
51266;SDS011;37338;47.426;19.204;2023-03-23T00:38:29;26.53;;;14.80;;
51266;SDS011;37338;47.426;19.204;2023-03-23T00:40:55;29.70;;;13.53;;
51266;SDS011;37338;47.426;19.204;2023-03-23T00:43:22;24.57;;;13.90;;
51266;SDS011;37338;47.426;19.204;2023-03-23T00:45:49;26.20;;;12.00;;
51266;SDS011;37338;47.426;19.204;2023-03-23T00:48:17;23.13;;;12.70;;
51266;SDS011;37338;47.426;19.204;2023-03-23T00:50:53;22.63;;;12.67;;
51266;SDS011;37338;47.426;19.204;2023-03-23T00:53:19;27.37;;;11.97;;
51266;SDS011;37338;47.426;19.204;2023-03-23T00:55:45;29.73;;;12.93;;
51266;SDS011;37338;47.426;19.204;2023-03-23T00:58:11;24.73;;;13.13;;
51266;SDS011;37338;47.426;19.204;2023-03-23T01:00:38;33.47;;;13.43;;
51266;SDS011;37338;47.426;19.204;2023-03-23T01:03:03;24.90;;;12.30;;
51266;SDS011;37338;47.426;19.204;2023-03-23T01:05:29;24.73;;;12.60;;
51266;SDS011;37338;47.426;19.204;2023-03-23T01:07:59;26.33;;;12.53;;
51266;SDS011;37338;47.426;19.204;2023-03-23T01:10:24;25.93;;;12.57;;
51266;SDS011;37338;47.426;19.204;2023-03-23T01:12:51;24.00;;;12.37;;
51266;SDS011;37338;47.426;19.204;2023-03-23T01:15:17;24.10;;;12.67;;
51266;SDS011;37338;47.426;19.204;2023-03-23T01:17:43;24.67;;;12.70;;
51266;SDS011;37338;47.426;19.204;2023-03-23T01:20:10;21.83;;;11.20;;
51266;SDS011;37338;47.426;19.204;2023-03-23T01:22:37;23.30;;;13.20;;
51266;SDS011;37338;47.426;19.204;2023-03-23T01:25:03;25.57;;;12.87;;
51266;SDS011;37338;47.426;19.204;2023-03-23T01:27:29;25.83;;;11.97;;
51266;SDS011;37338;47.426;19.204;2023-03-23T01:29:54;31.00;;;12.97;;
51266;SDS011;37338;47.426;19.204;2023-03-23T01:32:19;20.43;;;12.00;;
51266;SDS011;37338;47.426;19.204;2023-03-23T01:34:45;23.27;;;12.57;;
51266;SDS011;37338;47.426;19.204;2023-03-23T01:37:11;24.43;;;12.50;;
51266;SDS011;37338;47.426;19.204;2023-03-23T01:39:36;27.90;;;12.53;;
51266;SDS011;37338;47.426;19.204;2023-03-23T01:42:02;21.53;;;12.10;;
51266;SDS011;37338;47.426;19.204;2023-03-23T01:46:56;21.87;;;11.70;;
51266;SDS011;37338;47.426;19.204;2023-03-23T01:49:26;24.77;;;12.07;;
51266;SDS011;37338;47.426;19.204;2023-03-23T01:52:02;19.90;;;11.55;;
51266;SDS011;37338;47.426;19.204;2023-03-23T01:54:35;23.87;;;11.87;;
51266;SDS011;37338;47.426;19.204;2023-03-23T01:57:02;25.83;;;12.20;;
51266;SDS011;37338;47.426;19.204;2023-03-23T01:59:30;26.90;;;12.73;;
51266;SDS011;37338;47.426;19.204;2023-03-23T02:01:57;27.37;;;12.33;;
51266;SDS011;37338;47.426;19.204;2023-03-23T02:04:23;23.77;;;11.80;;
51266;SDS011;37338;47.426;19.204;2023-03-23T02:06:49;22.87;;;11.40;;
51266;SDS011;37338;47.426;19.204;2023-03-23T02:09:16;22.27;;;11.93;;
51266;SDS011;37338;47.426;19.204;2023-03-23T02:11:47;21.10;;;11.23;;
51266;SDS011;37338;47.426;19.204;2023-03-23T02:14:15;24.30;;;13.80;;
51266;SDS011;37338;47.426;19.204;2023-03-23T02:16:52;25.90;;;11.50;;
51266;SDS011;37338;47.426;19.204;2023-03-23T02:33:57;20.37;;;10.70;;
51266;SDS011;37338;47.426;19.204;2023-03-23T02:36:41;18.87;;;10.00;;
51266;SDS011;37338;47.426;19.204;2023-03-23T02:41:54;21.47;;;10.03;;
51266;SDS011;37338;47.426;19.204;2023-03-23T02:44:23;17.70;;;10.43;;
51266;SDS011;37338;47.426;19.204;2023-03-23T02:46:49;20.27;;;11.50;;
51266;SDS011;37338;47.426;19.204;2023-03-23T02:49:16;25.53;;;11.50;;
51266;SDS011;37338;47.426;19.204;2023-03-23T02:51:43;18.37;;;10.63;;
51266;SDS011;37338;47.426;19.204;2023-03-23T02:54:11;20.20;;;11.07;;
51266;SDS011;37338;47.426;19.204;2023-03-23T02:56:37;16.47;;;9.90;;
51266;SDS011;37338;47.426;19.204;2023-03-23T02:59:03;20.03;;;10.10;;
51266;SDS011;37338;47.426;19.204;2023-03-23T03:03:57;20.37;;;10.80;;
51266;SDS011;37338;47.426;19.204;2023-03-23T03:12:24;18.60;;;10.23;;
51266;SDS011;37338;47.426;19.204;2023-03-23T03:18:17;20.50;;;9.40;;
51266;SDS011;37338;47.426;19.204;2023-03-23T03:20:58;24.73;;;11.00;;
51266;SDS011;37338;47.426;19.204;2023-03-23T03:23:28;16.57;;;10.10;;
51266;SDS011;37338;47.426;19.204;2023-03-23T03:25:54;19.80;;;10.00;;
51266;SDS011;37338;47.426;19.204;2023-03-23T03:28:22;17.10;;;9.87;;
51266;SDS011;37338;47.426;19.204;2023-03-23T03:30:53;20.43;;;10.70;;
51266;SDS011;37338;47.426;19.204;2023-03-23T03:33:21;18.77;;;10.23;;
51266;SDS011;37338;47.426;19.204;2023-03-23T03:35:50;17.37;;;9.50;;
51266;SDS011;37338;47.426;19.204;2023-03-23T03:38:17;23.70;;;9.63;;
51266;SDS011;37338;47.426;19.204;2023-03-23T03:40:42;18.97;;;9.83;;
51266;SDS011;37338;47.426;19.204;2023-03-23T03:43:07;21.60;;;10.03;;
51266;SDS011;37338;47.426;19.204;2023-03-23T03:45:33;19.50;;;10.03;;
51266;SDS011;37338;47.426;19.204;2023-03-23T03:47:58;17.87;;;9.63;;
51266;SDS011;37338;47.426;19.204;2023-03-23T03:50:25;21.47;;;9.37;;
51266;SDS011;37338;47.426;19.204;2023-03-23T03:52:51;16.40;;;9.17;;
51266;SDS011;37338;47.426;19.204;2023-03-23T03:55:17;19.93;;;8.93;;
51266;SDS011;37338;47.426;19.204;2023-03-23T03:57:43;14.20;;;8.20;;
51266;SDS011;37338;47.426;19.204;2023-03-23T04:00:09;14.37;;;8.73;;
51266;SDS011;37338;47.426;19.204;2023-03-23T04:02:43;15.37;;;7.90;;
51266;SDS011;37338;47.426;19.204;2023-03-23T04:05:12;20.42;;;9.75;;
51266;SDS011;37338;47.426;19.204;2023-03-23T04:07:38;16.80;;;9.47;;
51266;SDS011;37338;47.426;19.204;2023-03-23T04:10:05;14.90;;;7.83;;
51266;SDS011;37338;47.426;19.204;2023-03-23T04:12:32;20.77;;;9.50;;
51266;SDS011;37338;47.426;19.204;2023-03-23T04:14:57;17.07;;;8.80;;
51266;SDS011;37338;47.426;19.204;2023-03-23T04:17:23;17.23;;;8.20;;
51266;SDS011;37338;47.426;19.204;2023-03-23T04:19:51;17.83;;;8.20;;
51266;SDS011;37338;47.426;19.204;2023-03-23T04:22:17;19.53;;;9.90;;
51266;SDS011;37338;47.426;19.204;2023-03-23T04:24:42;14.83;;;8.43;;
51266;SDS011;37338;47.426;19.204;2023-03-23T04:27:08;17.13;;;8.80;;
51266;SDS011;37338;47.426;19.204;2023-03-23T04:29:33;16.70;;;8.57;;
51266;SDS011;37338;47.426;19.204;2023-03-23T04:31:58;14.67;;;8.00;;
51266;SDS011;37338;47.426;19.204;2023-03-23T04:34:26;14.73;;;9.13;;
51266;SDS011;37338;47.426;19.204;2023-03-23T04:36:51;13.57;;;7.73;;
51266;SDS011;37338;47.426;19.204;2023-03-23T04:39:16;19.33;;;9.50;;
51266;SDS011;37338;47.426;19.204;2023-03-23T04:41:42;15.77;;;8.17;;
51266;SDS011;37338;47.426;19.204;2023-03-23T04:44:09;13.20;;;7.57;;
51266;SDS011;37338;47.426;19.204;2023-03-23T04:46:34;15.83;;;8.27;;
51266;SDS011;37338;47.426;19.204;2023-03-23T04:49:00;16.60;;;8.00;;
51266;SDS011;37338;47.426;19.204;2023-03-23T04:51:26;15.53;;;8.53;;
51266;SDS011;37338;47.426;19.204;2023-03-23T04:53:53;15.63;;;9.07;;
51266;SDS011;37338;47.426;19.204;2023-03-23T04:56:18;15.30;;;7.57;;
51266;SDS011;37338;47.426;19.204;2023-03-23T04:58:44;13.33;;;7.13;;
51266;SDS011;37338;47.426;19.204;2023-03-23T05:01:11;16.80;;;9.23;;
51266;SDS011;37338;47.426;19.204;2023-03-23T05:03:40;26.63;;;12.97;;
51266;SDS011;37338;47.426;19.204;2023-03-23T05:06:09;18.63;;;8.90;;
51266;SDS011;37338;47.426;19.204;2023-03-23T05:08:35;13.40;;;8.13;;
51266;SDS011;37338;47.426;19.204;2023-03-23T05:11:04;15.50;;;6.83;;
51266;SDS011;37338;47.426;19.204;2023-03-23T05:13:29;15.07;;;8.63;;
51266;SDS011;37338;47.426;19.204;2023-03-23T05:15:55;11.93;;;6.80;;
51266;SDS011;37338;47.426;19.204;2023-03-23T05:18:20;12.07;;;6.90;;
51266;SDS011;37338;47.426;19.204;2023-03-23T05:20:46;9.60;;;6.57;;
51266;SDS011;37338;47.426;19.204;2023-03-23T05:23:12;11.53;;;7.00;;
51266;SDS011;37338;47.426;19.204;2023-03-23T05:25:38;11.67;;;6.57;;
51266;SDS011;37338;47.426;19.204;2023-03-23T05:28:08;13.23;;;6.67;;
51266;SDS011;37338;47.426;19.204;2023-03-23T05:30:35;12.93;;;6.17;;
51266;SDS011;37338;47.426;19.204;2023-03-23T05:33:01;18.90;;;7.10;;
51266;SDS011;37338;47.426;19.204;2023-03-23T05:35:28;11.30;;;5.97;;
51266;SDS011;37338;47.426;19.204;2023-03-23T05:37:54;15.07;;;6.47;;
51266;SDS011;37338;47.426;19.204;2023-03-23T05:40:20;17.83;;;7.07;;
51266;SDS011;37338;47.426;19.204;2023-03-23T05:42:53;11.23;;;5.97;;
51266;SDS011;37338;47.426;19.204;2023-03-23T05:48:42;13.87;;;7.27;;
51266;SDS011;37338;47.426;19.204;2023-03-23T05:51:07;12.87;;;6.53;;
51266;SDS011;37338;47.426;19.204;2023-03-23T05:53:33;13.40;;;6.43;;
51266;SDS011;37338;47.426;19.204;2023-03-23T05:56:00;12.23;;;6.27;;
51266;SDS011;37338;47.426;19.204;2023-03-23T05:58:26;9.63;;;6.30;;
51266;SDS011;37338;47.426;19.204;2023-03-23T06:00:52;11.80;;;6.10;;
51266;SDS011;37338;47.426;19.204;2023-03-23T06:03:17;14.50;;;7.17;;
51266;SDS011;37338;47.426;19.204;2023-03-23T06:05:43;11.47;;;6.10;;
51266;SDS011;37338;47.426;19.204;2023-03-23T06:11:30;11.87;;;7.50;;
51266;SDS011;37338;47.426;19.204;2023-03-23T06:13:57;22.07;;;12.97;;
51266;SDS011;37338;47.426;19.204;2023-03-23T06:19:45;15.32;;;8.02;;
51266;SDS011;37338;47.426;19.204;2023-03-23T06:22:11;13.05;;;8.23;;
51266;SDS011;37338;47.426;19.204;2023-03-23T06:27:46;11.93;;;8.35;;
51266;SDS011;37338;47.426;19.204;2023-03-23T06:30:12;13.45;;;7.72;;
51266;SDS011;37338;47.426;19.204;2023-03-23T06:32:40;11.00;;;7.32;;
51266;SDS011;37338;47.426;19.204;2023-03-23T06:35:06;8.20;;;6.63;;
51266;SDS011;37338;47.426;19.204;2023-03-23T06:44:17;9.93;;;6.43;;
51266;SDS011;37338;47.426;19.204;2023-03-23T06:46:43;7.87;;;5.90;;
51266;SDS011;37338;47.426;19.204;2023-03-23T07:11:35;14.32;;;8.88;;
51266;SDS011;37338;47.426;19.204;2023-03-23T07:14:01;17.20;;;9.02;;
51266;SDS011;37338;47.426;19.204;2023-03-23T07:16:26;12.55;;;8.80;;
51266;SDS011;37338;47.426;19.204;2023-03-23T07:18:51;13.98;;;8.70;;
51266;SDS011;37338;47.426;19.204;2023-03-23T07:21:17;9.23;;;7.55;;
51266;SDS011;37338;47.426;19.204;2023-03-23T07:23:43;13.52;;;7.22;;
51266;SDS011;37338;47.426;19.204;2023-03-23T07:26:14;9.88;;;6.80;;
51266;SDS011;37338;47.426;19.204;2023-03-23T07:28:39;8.82;;;7.10;;
51266;SDS011;37338;47.426;19.204;2023-03-23T07:31:08;11.90;;;8.55;;
51266;SDS011;37338;47.426;19.204;2023-03-23T07:33:34;8.93;;;6.03;;
51266;SDS011;37338;47.426;19.204;2023-03-23T07:36:00;9.95;;;6.65;;
51266;SDS011;37338;47.426;19.204;2023-03-23T07:38:27;8.73;;;7.18;;
51266;SDS011;37338;47.426;19.204;2023-03-23T07:40:52;9.15;;;6.68;;
51266;SDS011;37338;47.426;19.204;2023-03-23T07:43:18;7.70;;;5.43;;
51266;SDS011;37338;47.426;19.204;2023-03-23T07:45:45;7.93;;;6.20;;
51266;SDS011;37338;47.426;19.204;2023-03-23T07:48:10;9.57;;;5.32;;
51266;SDS011;37338;47.426;19.204;2023-03-23T07:50:36;7.35;;;5.30;;
51266;SDS011;37338;47.426;19.204;2023-03-23T07:53:03;6.90;;;4.40;;
51266;SDS011;37338;47.426;19.204;2023-03-23T07:55:29;9.73;;;5.35;;
51266;SDS011;37338;47.426;19.204;2023-03-23T07:57:55;9.75;;;4.75;;
51266;SDS011;37338;47.426;19.204;2023-03-23T08:00:22;8.55;;;5.60;;
51266;SDS011;37338;47.426;19.204;2023-03-23T08:02:52;7.55;;;5.05;;
51266;SDS011;37338;47.426;19.204;2023-03-23T08:05:22;9.77;;;4.72;;
51266;SDS011;37338;47.426;19.204;2023-03-23T08:07:48;6.55;;;4.25;;
51266;SDS011;37338;47.426;19.204;2023-03-23T08:10:17;6.55;;;5.43;;
51266;SDS011;37338;47.426;19.204;2023-03-23T08:12:43;6.68;;;5.25;;
51266;SDS011;37338;47.426;19.204;2023-03-23T08:15:10;9.07;;;5.20;;
51266;SDS011;37338;47.426;19.204;2023-03-23T08:17:42;7.63;;;5.43;;
51266;SDS011;37338;47.426;19.204;2023-03-23T08:20:08;7.47;;;5.35;;
51266;SDS011;37338;47.426;19.204;2023-03-23T08:22:38;8.13;;;5.57;;
51266;SDS011;37338;47.426;19.204;2023-03-23T08:25:08;10.45;;;4.45;;
51266;SDS011;37338;47.426;19.204;2023-03-23T08:27:35;5.38;;;4.47;;
51266;SDS011;37338;47.426;19.204;2023-03-23T08:30:01;6.43;;;5.55;;
51266;SDS011;37338;47.426;19.204;2023-03-23T08:32:26;5.95;;;4.85;;
51266;SDS011;37338;47.426;19.204;2023-03-23T08:34:52;5.68;;;4.57;;
51266;SDS011;37338;47.426;19.204;2023-03-23T08:37:17;6.47;;;4.78;;
51266;SDS011;37338;47.426;19.204;2023-03-23T08:39:43;7.50;;;5.57;;
51266;SDS011;37338;47.426;19.204;2023-03-23T08:42:09;6.40;;;5.47;;
51266;SDS011;37338;47.426;19.204;2023-03-23T08:44:35;7.07;;;5.53;;
51266;SDS011;37338;47.426;19.204;2023-03-23T08:47:01;6.82;;;5.28;;
51266;SDS011;37338;47.426;19.204;2023-03-23T08:49:29;7.78;;;4.93;;
51266;SDS011;37338;47.426;19.204;2023-03-23T08:51:57;6.82;;;4.90;;
51266;SDS011;37338;47.426;19.204;2023-03-23T08:54:23;6.53;;;5.05;;
51266;SDS011;37338;47.426;19.204;2023-03-23T08:56:49;6.38;;;5.05;;
51266;SDS011;37338;47.426;19.204;2023-03-23T08:59:14;6.20;;;4.80;;
51266;SDS011;37338;47.426;19.204;2023-03-23T09:01:40;6.55;;;4.93;;
51266;SDS011;37338;47.426;19.204;2023-03-23T09:04:06;6.40;;;4.03;;
51266;SDS011;37338;47.426;19.204;2023-03-23T09:06:31;4.80;;;4.22;;
51266;SDS011;37338;47.426;19.204;2023-03-23T09:08:58;6.05;;;4.57;;
51266;SDS011;37338;47.426;19.204;2023-03-23T09:11:25;5.60;;;4.38;;
51266;SDS011;37338;47.426;19.204;2023-03-23T09:13:51;9.45;;;3.92;;
51266;SDS011;37338;47.426;19.204;2023-03-23T09:16:17;4.40;;;3.72;;
51266;SDS011;37338;47.426;19.204;2023-03-23T09:18:42;5.65;;;3.65;;
51266;SDS011;37338;47.426;19.204;2023-03-23T09:21:07;6.00;;;3.92;;
51266;SDS011;37338;47.426;19.204;2023-03-23T09:23:34;3.78;;;3.08;;
51266;SDS011;37338;47.426;19.204;2023-03-23T09:26:00;3.20;;;2.83;;
51266;SDS011;37338;47.426;19.204;2023-03-23T09:28:26;4.28;;;2.58;;
51266;SDS011;37338;47.426;19.204;2023-03-23T09:30:53;5.10;;;3.00;;
51266;SDS011;37338;47.426;19.204;2023-03-23T09:33:22;4.07;;;2.53;;
51266;SDS011;37338;47.426;19.204;2023-03-23T09:35:47;3.88;;;2.67;;
51266;SDS011;37338;47.426;19.204;2023-03-23T09:38:13;5.05;;;2.67;;
51266;SDS011;37338;47.426;19.204;2023-03-23T09:43:11;2.88;;;2.50;;
51266;SDS011;37338;47.426;19.204;2023-03-23T09:48:31;3.30;;;2.03;;
51266;SDS011;37338;47.426;19.204;2023-03-23T09:51:11;1.80;;;1.70;;
51266;SDS011;37338;47.426;19.204;2023-03-23T09:54:00;3.00;;;2.25;;
51266;SDS011;37338;47.426;19.204;2023-03-23T09:56:29;3.10;;;2.10;;
51266;SDS011;37338;47.426;19.204;2023-03-23T09:59:02;2.65;;;2.45;;
51266;SDS011;37338;47.426;19.204;2023-03-23T10:01:34;4.87;;;1.83;;
51266;SDS011;37338;47.426;19.204;2023-03-23T10:04:03;2.15;;;1.90;;
51266;SDS011;37338;47.426;19.204;2023-03-23T10:06:32;3.85;;;2.35;;
51266;SDS011;37338;47.426;19.204;2023-03-23T10:08:59;2.08;;;1.88;;
51266;SDS011;37338;47.426;19.204;2023-03-23T10:11:35;2.30;;;2.00;;
51266;SDS011;37338;47.426;19.204;2023-03-23T10:14:16;1.40;;;1.30;;
51266;SDS011;37338;47.426;19.204;2023-03-23T10:20:09;2.28;;;1.90;;
51266;SDS011;37338;47.426;19.204;2023-03-23T10:23:02;2.20;;;2.00;;
51266;SDS011;37338;47.426;19.204;2023-03-23T10:25:41;2.97;;;1.85;;
51266;SDS011;37338;47.426;19.204;2023-03-23T10:28:12;1.38;;;1.27;;
51266;SDS011;37338;47.426;19.204;2023-03-23T10:30:49;1.73;;;1.40;;
51266;SDS011;37338;47.426;19.204;2023-03-23T10:33:26;7.45;;;1.73;;
51266;SDS011;37338;47.426;19.204;2023-03-23T10:35:57;3.95;;;1.20;;
51266;SDS011;37338;47.426;19.204;2023-03-23T10:38:42;1.45;;;1.15;;
51266;SDS011;37338;47.426;19.204;2023-03-23T10:43:39;1.50;;;1.40;;
51266;SDS011;37338;47.426;19.204;2023-03-23T10:46:12;2.72;;;1.60;;
51266;SDS011;37338;47.426;19.204;2023-03-23T10:48:47;1.85;;;1.17;;
51266;SDS011;37338;47.426;19.204;2023-03-23T10:51:14;1.80;;;1.70;;
51266;SDS011;37338;47.426;19.204;2023-03-23T10:53:43;2.83;;;1.67;;
51266;SDS011;37338;47.426;19.204;2023-03-23T10:56:23;1.73;;;1.48;;
51266;SDS011;37338;47.426;19.204;2023-03-23T10:58:50;1.10;;;1.00;;
51266;SDS011;37338;47.426;19.204;2023-03-23T11:01:18;1.52;;;1.38;;
51266;SDS011;37338;47.426;19.204;2023-03-23T11:03:45;2.42;;;0.88;;
51266;SDS011;37338;47.426;19.204;2023-03-23T11:06:24;2.88;;;1.42;;
51266;SDS011;37338;47.426;19.204;2023-03-23T11:08:55;2.78;;;1.58;;
51266;SDS011;37338;47.426;19.204;2023-03-23T11:11:30;1.15;;;0.93;;
51266;SDS011;37338;47.426;19.204;2023-03-23T11:13:58;1.63;;;1.08;;
51266;SDS011;37338;47.426;19.204;2023-03-23T11:16:30;1.55;;;1.20;;
51266;SDS011;37338;47.426;19.204;2023-03-23T11:19:00;3.60;;;2.35;;
51266;SDS011;37338;47.426;19.204;2023-03-23T11:21:38;2.05;;;1.27;;
51266;SDS011;37338;47.426;19.204;2023-03-23T11:24:04;1.33;;;1.23;;
51266;SDS011;37338;47.426;19.204;2023-03-23T11:26:31;1.27;;;1.17;;
51266;SDS011;37338;47.426;19.204;2023-03-23T11:29:17;1.83;;;1.45;;
51266;SDS011;37338;47.426;19.204;2023-03-23T11:31:49;1.20;;;1.10;;
51266;SDS011;37338;47.426;19.204;2023-03-23T11:37:01;4.95;;;1.48;;
51266;SDS011;37338;47.426;19.204;2023-03-23T11:39:30;1.52;;;1.42;;
51266;SDS011;37338;47.426;19.204;2023-03-23T11:41:57;2.00;;;1.10;;
51266;SDS011;37338;47.426;19.204;2023-03-23T11:44:31;1.63;;;1.52;;
51266;SDS011;37338;47.426;19.204;2023-03-23T11:47:00;1.63;;;1.45;;
51266;SDS011;37338;47.426;19.204;2023-03-23T11:49:30;1.15;;;1.10;;
51266;SDS011;37338;47.426;19.204;2023-03-23T11:52:08;2.38;;;1.30;;
51266;SDS011;37338;47.426;19.204;2023-03-23T11:54:38;3.40;;;1.20;;
51266;SDS011;37338;47.426;19.204;2023-03-23T11:57:08;1.67;;;1.20;;
51266;SDS011;37338;47.426;19.204;2023-03-23T11:59:36;1.75;;;1.27;;
51266;SDS011;37338;47.426;19.204;2023-03-23T12:11:48;1.40;;;1.30;;
51266;SDS011;37338;47.426;19.204;2023-03-23T12:26:41;1.73;;;1.25;;
51266;SDS011;37338;47.426;19.204;2023-03-23T12:48:23;1.48;;;1.08;;
51266;SDS011;37338;47.426;19.204;2023-03-23T12:56:18;2.20;;;1.33;;
51266;SDS011;37338;47.426;19.204;2023-03-23T12:58:48;1.58;;;1.23;;
51266;SDS011;37338;47.426;19.204;2023-03-23T13:01:23;1.45;;;1.17;;
51266;SDS011;37338;47.426;19.204;2023-03-23T13:04:08;1.20;;;1.10;;
51266;SDS011;37338;47.426;19.204;2023-03-23T13:06:38;1.15;;;1.10;;
51266;SDS011;37338;47.426;19.204;2023-03-23T13:09:16;1.48;;;1.00;;
51266;SDS011;37338;47.426;19.204;2023-03-23T13:11:58;1.70;;;1.25;;
51266;SDS011;37338;47.426;19.204;2023-03-23T13:28:57;1.55;;;1.17;;
51266;SDS011;37338;47.426;19.204;2023-03-23T13:31:34;1.38;;;1.27;;
51266;SDS011;37338;47.426;19.204;2023-03-23T13:34:04;1.48;;;1.20;;
51266;SDS011;37338;47.426;19.204;2023-03-23T13:36:33;1.52;;;1.20;;
51266;SDS011;37338;47.426;19.204;2023-03-23T13:39:04;1.77;;;1.50;;
51266;SDS011;37338;47.426;19.204;2023-03-23T13:41:44;1.30;;;1.17;;
51266;SDS011;37338;47.426;19.204;2023-03-23T13:44:16;0.98;;;0.98;;
51266;SDS011;37338;47.426;19.204;2023-03-23T13:46:53;1.42;;;1.33;;
51266;SDS011;37338;47.426;19.204;2023-03-23T13:49:23;2.58;;;1.27;;
51266;SDS011;37338;47.426;19.204;2023-03-23T13:54:23;2.08;;;1.90;;
51266;SDS011;37338;47.426;19.204;2023-03-23T13:56:57;2.10;;;0.98;;
51266;SDS011;37338;47.426;19.204;2023-03-23T14:01:55;6.35;;;1.15;;
51266;SDS011;37338;47.426;19.204;2023-03-23T14:04:22;1.15;;;1.08;;
51266;SDS011;37338;47.426;19.204;2023-03-23T14:06:56;1.40;;;1.30;;
51266;SDS011;37338;47.426;19.204;2023-03-23T14:12:02;1.55;;;1.45;;
51266;SDS011;37338;47.426;19.204;2023-03-23T14:14:38;3.30;;;1.20;;
51266;SDS011;37338;47.426;19.204;2023-03-23T14:19:53;2.05;;;1.25;;
51266;SDS011;37338;47.426;19.204;2023-03-23T14:22:33;1.30;;;1.17;;
51266;SDS011;37338;47.426;19.204;2023-03-23T14:25:01;3.38;;;1.73;;
51266;SDS011;37338;47.426;19.204;2023-03-23T14:27:34;1.77;;;1.23;;
51266;SDS011;37338;47.426;19.204;2023-03-23T14:30:00;3.35;;;1.30;;
51266;SDS011;37338;47.426;19.204;2023-03-23T14:32:30;2.15;;;1.55;;
51266;SDS011;37338;47.426;19.204;2023-03-23T14:34:57;1.13;;;0.90;;
51266;SDS011;37338;47.426;19.204;2023-03-23T14:40:39;2.05;;;1.67;;
51266;SDS011;37338;47.426;19.204;2023-03-23T14:43:04;1.48;;;1.15;;
51266;SDS011;37338;47.426;19.204;2023-03-23T14:45:30;4.10;;;1.10;;
51266;SDS011;37338;47.426;19.204;2023-03-23T14:48:05;4.95;;;1.83;;
51266;SDS011;37338;47.426;19.204;2023-03-23T14:50:41;2.40;;;1.60;;
51266;SDS011;37338;47.426;19.204;2023-03-23T14:53:21;6.00;;;1.52;;
51266;SDS011;37338;47.426;19.204;2023-03-23T14:55:48;2.47;;;1.58;;
51266;SDS011;37338;47.426;19.204;2023-03-23T14:58:16;1.90;;;1.63;;
51266;SDS011;37338;47.426;19.204;2023-03-23T15:00:51;1.42;;;1.33;;
51266;SDS011;37338;47.426;19.204;2023-03-23T15:03:55;2.30;;;1.35;;
51266;SDS011;37338;47.426;19.204;2023-03-23T15:06:23;3.00;;;1.63;;
51266;SDS011;37338;47.426;19.204;2023-03-23T15:08:52;1.73;;;1.13;;
51266;SDS011;37338;47.426;19.204;2023-03-23T15:13:46;5.35;;;1.23;;
51266;SDS011;37338;47.426;19.204;2023-03-23T15:16:34;1.90;;;1.65;;
51266;SDS011;37338;47.426;19.204;2023-03-23T15:19:03;8.13;;;1.48;;
51266;SDS011;37338;47.426;19.204;2023-03-23T15:21:34;1.27;;;1.17;;
51266;SDS011;37338;47.426;19.204;2023-03-23T15:24:01;1.98;;;1.15;;
51266;SDS011;37338;47.426;19.204;2023-03-23T15:26:32;1.92;;;1.20;;
51266;SDS011;37338;47.426;19.204;2023-03-23T15:31:33;2.22;;;1.45;;
51266;SDS011;37338;47.426;19.204;2023-03-23T15:34:01;3.33;;;1.27;;
51266;SDS011;37338;47.426;19.204;2023-03-23T15:36:30;2.10;;;1.20;;
51266;SDS011;37338;47.426;19.204;2023-03-23T15:38:57;2.22;;;1.40;;
51266;SDS011;37338;47.426;19.204;2023-03-23T15:41:24;1.10;;;1.00;;
51266;SDS011;37338;47.426;19.204;2023-03-23T15:46:24;3.72;;;1.48;;
51266;SDS011;37338;47.426;19.204;2023-03-23T15:48:52;3.35;;;1.20;;
51266;SDS011;37338;47.426;19.204;2023-03-23T15:51:22;1.63;;;1.17;;
51266;SDS011;37338;47.426;19.204;2023-03-23T15:53:50;7.13;;;2.08;;
51266;SDS011;37338;47.426;19.204;2023-03-23T15:56:16;1.67;;;1.40;;
51266;SDS011;37338;47.426;19.204;2023-03-23T15:58:41;1.58;;;1.48;;
51266;SDS011;37338;47.426;19.204;2023-03-23T16:01:15;2.78;;;2.40;;
51266;SDS011;37338;47.426;19.204;2023-03-23T16:06:18;6.97;;;3.67;;
51266;SDS011;37338;47.426;19.204;2023-03-23T16:08:45;7.03;;;3.38;;
51266;SDS011;37338;47.426;19.204;2023-03-23T16:11:11;7.18;;;3.38;;
51266;SDS011;37338;47.426;19.204;2023-03-23T16:13:38;8.23;;;4.72;;
51266;SDS011;37338;47.426;19.204;2023-03-23T16:16:04;17.02;;;6.85;;
51266;SDS011;37338;47.426;19.204;2023-03-23T16:21:25;18.83;;;8.00;;
51266;SDS011;37338;47.426;19.204;2023-03-23T16:23:51;12.77;;;5.65;;
51266;SDS011;37338;47.426;19.204;2023-03-23T16:26:16;8.13;;;3.92;;
51266;SDS011;37338;47.426;19.204;2023-03-23T16:28:42;13.23;;;5.70;;
51266;SDS011;37338;47.426;19.204;2023-03-23T16:31:08;62.50;;;40.10;;
51266;SDS011;37338;47.426;19.204;2023-03-23T16:33:33;24.15;;;11.90;;
51266;SDS011;37338;47.426;19.204;2023-03-23T16:39:05;30.23;;;13.27;;
51266;SDS011;37338;47.426;19.204;2023-03-23T16:41:30;6.43;;;3.90;;
51266;SDS011;37338;47.426;19.204;2023-03-23T16:43:56;6.97;;;3.95;;
51266;SDS011;37338;47.426;19.204;2023-03-23T16:46:21;3.63;;;3.30;;
51266;SDS011;37338;47.426;19.204;2023-03-23T16:49:05;6.22;;;3.75;;
51266;SDS011;37338;47.426;19.204;2023-03-23T17:04:57;6.70;;;2.10;;
51266;SDS011;37338;47.426;19.204;2023-03-23T17:07:23;2.42;;;1.88;;
51266;SDS011;37338;47.426;19.204;2023-03-23T17:09:49;7.70;;;1.92;;
51266;SDS011;37338;47.426;19.204;2023-03-23T17:12:15;1.70;;;1.58;;
51266;SDS011;37338;47.426;19.204;2023-03-23T17:14:40;4.38;;;2.05;;
51266;SDS011;37338;47.426;19.204;2023-03-23T17:17:06;7.18;;;2.30;;
51266;SDS011;37338;47.426;19.204;2023-03-23T17:19:31;8.32;;;4.95;;
51266;SDS011;37338;47.426;19.204;2023-03-23T17:21:57;4.03;;;2.95;;
51266;SDS011;37338;47.426;19.204;2023-03-23T17:24:22;6.88;;;3.00;;
51266;SDS011;37338;47.426;19.204;2023-03-23T17:26:47;3.50;;;2.42;;
51266;SDS011;37338;47.426;19.204;2023-03-23T17:29:13;5.07;;;2.30;;
51266;SDS011;37338;47.426;19.204;2023-03-23T17:31:38;6.55;;;2.67;;
51266;SDS011;37338;47.426;19.204;2023-03-23T17:34:05;4.28;;;3.13;;
51266;SDS011;37338;47.426;19.204;2023-03-23T17:36:31;5.40;;;2.95;;
51266;SDS011;37338;47.426;19.204;2023-03-23T17:38:56;6.70;;;3.30;;
51266;SDS011;37338;47.426;19.204;2023-03-23T17:41:22;6.03;;;3.13;;
51266;SDS011;37338;47.426;19.204;2023-03-23T17:43:47;4.57;;;2.22;;
51266;SDS011;37338;47.426;19.204;2023-03-23T17:46:12;8.57;;;3.00;;